sensor_id;sensor_type;location;lat;lon;timestamp;P1;durP1;ratioP1;P2;durP2;ratioP2
64186;SDS011;50491;39.484;-8.540;2022-07-24T00:01:09;4.88;;;3.08;;
64186;SDS011;50491;39.484;-8.540;2022-07-24T00:03:28;6.22;;;2.88;;
64186;SDS011;50491;39.484;-8.540;2022-07-24T00:05:29;3.85;;;1.83;;
64186;SDS011;50491;39.484;-8.540;2022-07-24T00:07:30;5.00;;;2.30;;
64186;SDS011;50491;39.484;-8.540;2022-07-24T00:09:31;5.47;;;2.80;;
64186;SDS011;50491;39.484;-8.540;2022-07-24T00:14:28;2.13;;;1.77;;
64186;SDS011;50491;39.484;-8.540;2022-07-24T00:16:54;3.28;;;2.38;;
64186;SDS011;50491;39.484;-8.540;2022-07-24T00:18:55;2.95;;;2.30;;
64186;SDS011;50491;39.484;-8.540;2022-07-24T00:20:56;3.05;;;2.25;;
64186;SDS011;50491;39.484;-8.540;2022-07-24T00:22:57;6.75;;;2.13;;
64186;SDS011;50491;39.484;-8.540;2022-07-24T00:24:57;2.10;;;1.83;;
64186;SDS011;50491;39.484;-8.540;2022-07-24T00:26:58;2.38;;;2.10;;
64186;SDS011;50491;39.484;-8.540;2022-07-24T00:29:01;4.28;;;2.22;;
64186;SDS011;50491;39.484;-8.540;2022-07-24T00:31:01;5.93;;;2.53;;
64186;SDS011;50491;39.484;-8.540;2022-07-24T00:33:02;5.75;;;2.45;;
64186;SDS011;50491;39.484;-8.540;2022-07-24T00:35:03;2.53;;;2.08;;
64186;SDS011;50491;39.484;-8.540;2022-07-24T00:37:04;12.15;;;2.83;;
64186;SDS011;50491;39.484;-8.540;2022-07-24T00:39:05;4.15;;;2.60;;
64186;SDS011;50491;39.484;-8.540;2022-07-24T00:41:05;11.35;;;2.75;;
64186;SDS011;50491;39.484;-8.540;2022-07-24T00:43:06;5.30;;;3.13;;
64186;SDS011;50491;39.484;-8.540;2022-07-24T00:45:07;4.47;;;2.20;;
64186;SDS011;50491;39.484;-8.540;2022-07-24T00:47:27;10.63;;;2.33;;
64186;SDS011;50491;39.484;-8.540;2022-07-24T00:49:28;2.53;;;1.58;;
64186;SDS011;50491;39.484;-8.540;2022-07-24T00:51:28;3.97;;;3.08;;
64186;SDS011;50491;39.484;-8.540;2022-07-24T00:53:29;4.35;;;1.35;;
64186;SDS011;50491;39.484;-8.540;2022-07-24T00:55:30;2.33;;;1.70;;
64186;SDS011;50491;39.484;-8.540;2022-07-24T00:57:49;2.47;;;1.55;;
64186;SDS011;50491;39.484;-8.540;2022-07-24T00:59:51;3.55;;;1.92;;
64186;SDS011;50491;39.484;-8.540;2022-07-24T01:02:10;2.85;;;2.10;;
64186;SDS011;50491;39.484;-8.540;2022-07-24T01:04:30;1.67;;;1.58;;
64186;SDS011;50491;39.484;-8.540;2022-07-24T01:06:49;2.80;;;1.90;;
64186;SDS011;50491;39.484;-8.540;2022-07-24T01:08:50;2.50;;;2.22;;
64186;SDS011;50491;39.484;-8.540;2022-07-24T01:11:09;3.08;;;2.20;;
64186;SDS011;50491;39.484;-8.540;2022-07-24T01:13:29;3.03;;;1.95;;
64186;SDS011;50491;39.484;-8.540;2022-07-24T01:15:30;3.15;;;2.05;;
64186;SDS011;50491;39.484;-8.540;2022-07-24T01:18:08;2.67;;;2.15;;
64186;SDS011;50491;39.484;-8.540;2022-07-24T01:20:27;3.72;;;2.85;;
64186;SDS011;50491;39.484;-8.540;2022-07-24T01:22:28;2.30;;;2.10;;
64186;SDS011;50491;39.484;-8.540;2022-07-24T01:24:29;1.73;;;1.50;;
64186;SDS011;50491;39.484;-8.540;2022-07-24T01:26:30;2.10;;;1.85;;
64186;SDS011;50491;39.484;-8.540;2022-07-24T01:28:30;2.60;;;2.28;;
64186;SDS011;50491;39.484;-8.540;2022-07-24T01:30:31;4.22;;;1.98;;
64186;SDS011;50491;39.484;-8.540;2022-07-24T01:32:32;6.35;;;2.60;;
64186;SDS011;50491;39.484;-8.540;2022-07-24T01:34:32;2.28;;;1.55;;
64186;SDS011;50491;39.484;-8.540;2022-07-24T01:36:33;2.58;;;2.33;;
64186;SDS011;50491;39.484;-8.540;2022-07-24T01:38:53;3.00;;;1.65;;
64186;SDS011;50491;39.484;-8.540;2022-07-24T01:41:12;2.45;;;1.95;;
64186;SDS011;50491;39.484;-8.540;2022-07-24T01:43:13;3.92;;;2.00;;
64186;SDS011;50491;39.484;-8.540;2022-07-24T01:45:14;7.85;;;2.53;;
64186;SDS011;50491;39.484;-8.540;2022-07-24T01:47:15;7.10;;;3.78;;
64186;SDS011;50491;39.484;-8.540;2022-07-24T01:49:34;2.42;;;1.80;;
64186;SDS011;50491;39.484;-8.540;2022-07-24T01:51:34;1.98;;;1.88;;
64186;SDS011;50491;39.484;-8.540;2022-07-24T01:53:35;3.25;;;1.58;;
64186;SDS011;50491;39.484;-8.540;2022-07-24T01:55:36;1.90;;;1.67;;
64186;SDS011;50491;39.484;-8.540;2022-07-24T02:04:54;4.20;;;2.40;;
64186;SDS011;50491;39.484;-8.540;2022-07-24T02:06:54;3.60;;;1.90;;
64186;SDS011;50491;39.484;-8.540;2022-07-24T02:08:55;2.90;;;1.85;;
64186;SDS011;50491;39.484;-8.540;2022-07-24T02:10:56;5.78;;;2.47;;
64186;SDS011;50491;39.484;-8.540;2022-07-24T02:12:56;3.97;;;2.50;;
64186;SDS011;50491;39.484;-8.540;2022-07-24T02:14:57;2.20;;;1.88;;
64186;SDS011;50491;39.484;-8.540;2022-07-24T02:17:16;5.70;;;2.25;;
64186;SDS011;50491;39.484;-8.540;2022-07-24T02:19:17;4.55;;;1.90;;
64186;SDS011;50491;39.484;-8.540;2022-07-24T02:21:36;2.75;;;1.60;;
64186;SDS011;50491;39.484;-8.540;2022-07-24T02:23:37;2.22;;;1.90;;
64186;SDS011;50491;39.484;-8.540;2022-07-24T02:25:38;2.88;;;2.17;;
64186;SDS011;50491;39.484;-8.540;2022-07-24T02:27:38;4.57;;;2.40;;
64186;SDS011;50491;39.484;-8.540;2022-07-24T02:29:39;8.88;;;2.35;;
64186;SDS011;50491;39.484;-8.540;2022-07-24T02:31:40;2.65;;;1.67;;
64186;SDS011;50491;39.484;-8.540;2022-07-24T02:36:18;2.67;;;2.13;;
64186;SDS011;50491;39.484;-8.540;2022-07-24T02:41:34;3.65;;;2.55;;
64186;SDS011;50491;39.484;-8.540;2022-07-24T02:46:13;4.93;;;2.22;;
64186;SDS011;50491;39.484;-8.540;2022-07-24T02:48:13;4.65;;;2.28;;
64186;SDS011;50491;39.484;-8.540;2022-07-24T02:50:14;5.03;;;2.35;;
64186;SDS011;50491;39.484;-8.540;2022-07-24T02:54:54;2.40;;;1.83;;
64186;SDS011;50491;39.484;-8.540;2022-07-24T02:56:55;3.08;;;2.03;;
64186;SDS011;50491;39.484;-8.540;2022-07-24T03:06:12;3.33;;;1.73;;
64186;SDS011;50491;39.484;-8.540;2022-07-24T03:08:13;3.30;;;1.77;;
64186;SDS011;50491;39.484;-8.540;2022-07-24T03:10:14;3.50;;;2.72;;
64186;SDS011;50491;39.484;-8.540;2022-07-24T03:12:15;4.40;;;2.40;;
64186;SDS011;50491;39.484;-8.540;2022-07-24T03:14:15;2.33;;;1.92;;
64186;SDS011;50491;39.484;-8.540;2022-07-24T03:16:35;3.25;;;2.35;;
64186;SDS011;50491;39.484;-8.540;2022-07-24T03:18:55;4.38;;;2.30;;
64186;SDS011;50491;39.484;-8.540;2022-07-24T03:20:56;3.85;;;2.40;;
64186;SDS011;50491;39.484;-8.540;2022-07-24T03:23:15;3.70;;;2.35;;
64186;SDS011;50491;39.484;-8.540;2022-07-24T03:25:34;6.32;;;2.95;;
64186;SDS011;50491;39.484;-8.540;2022-07-24T03:27:34;4.03;;;2.35;;
64186;SDS011;50491;39.484;-8.540;2022-07-24T03:29:36;3.28;;;2.28;;
64186;SDS011;50491;39.484;-8.540;2022-07-24T03:31:37;3.53;;;2.50;;
64186;SDS011;50491;39.484;-8.540;2022-07-24T03:33:37;5.70;;;3.08;;
64186;SDS011;50491;39.484;-8.540;2022-07-24T03:35:57;4.63;;;2.63;;
64186;SDS011;50491;39.484;-8.540;2022-07-24T03:37:57;3.42;;;2.03;;
64186;SDS011;50491;39.484;-8.540;2022-07-24T03:39:58;2.10;;;1.90;;
64186;SDS011;50491;39.484;-8.540;2022-07-24T03:41:59;3.58;;;1.92;;
64186;SDS011;50491;39.484;-8.540;2022-07-24T03:44:18;4.82;;;3.00;;
64186;SDS011;50491;39.484;-8.540;2022-07-24T03:46:19;6.13;;;2.50;;
64186;SDS011;50491;39.484;-8.540;2022-07-24T03:48:19;4.38;;;1.95;;
64186;SDS011;50491;39.484;-8.540;2022-07-24T03:50:20;5.47;;;2.30;;
64186;SDS011;50491;39.484;-8.540;2022-07-24T03:52:20;4.25;;;2.40;;
64186;SDS011;50491;39.484;-8.540;2022-07-24T03:54:21;3.92;;;2.85;;
64186;SDS011;50491;39.484;-8.540;2022-07-24T03:56:22;3.13;;;2.00;;
64186;SDS011;50491;39.484;-8.540;2022-07-24T03:58:23;2.70;;;2.08;;
64186;SDS011;50491;39.484;-8.540;2022-07-24T04:00:42;2.75;;;2.05;;
64186;SDS011;50491;39.484;-8.540;2022-07-24T04:02:43;4.70;;;2.67;;
64186;SDS011;50491;39.484;-8.540;2022-07-24T04:05:33;4.00;;;2.38;;
64186;SDS011;50491;39.484;-8.540;2022-07-24T04:07:37;4.72;;;3.08;;
64186;SDS011;50491;39.484;-8.540;2022-07-24T04:11:57;11.73;;;4.35;;
64186;SDS011;50491;39.484;-8.540;2022-07-24T04:13:57;6.13;;;3.17;;
64186;SDS011;50491;39.484;-8.540;2022-07-24T04:16:17;6.82;;;2.33;;
64186;SDS011;50491;39.484;-8.540;2022-07-24T04:18:43;4.50;;;2.53;;
64186;SDS011;50491;39.484;-8.540;2022-07-24T04:23:10;4.50;;;2.80;;
64186;SDS011;50491;39.484;-8.540;2022-07-24T04:25:10;4.90;;;2.47;;
64186;SDS011;50491;39.484;-8.540;2022-07-24T04:27:11;3.13;;;2.67;;
64186;SDS011;50491;39.484;-8.540;2022-07-24T04:31:32;7.00;;;3.75;;
64186;SDS011;50491;39.484;-8.540;2022-07-24T04:33:33;8.27;;;4.25;;
64186;SDS011;50491;39.484;-8.540;2022-07-24T04:35:33;5.30;;;3.88;;
64186;SDS011;50491;39.484;-8.540;2022-07-24T04:37:59;5.90;;;3.20;;
64186;SDS011;50491;39.484;-8.540;2022-07-24T04:40:00;6.40;;;3.55;;
64186;SDS011;50491;39.484;-8.540;2022-07-24T04:42:01;4.18;;;3.42;;
64186;SDS011;50491;39.484;-8.540;2022-07-24T04:44:01;4.70;;;2.85;;
64186;SDS011;50491;39.484;-8.540;2022-07-24T04:46:02;4.93;;;3.00;;
64186;SDS011;50491;39.484;-8.540;2022-07-24T04:48:03;4.20;;;2.63;;
64186;SDS011;50491;39.484;-8.540;2022-07-24T04:50:05;6.82;;;3.08;;
64186;SDS011;50491;39.484;-8.540;2022-07-24T04:52:25;8.52;;;3.88;;
64186;SDS011;50491;39.484;-8.540;2022-07-24T04:54:26;4.70;;;3.33;;
64186;SDS011;50491;39.484;-8.540;2022-07-24T04:56:27;4.90;;;3.22;;
64186;SDS011;50491;39.484;-8.540;2022-07-24T04:58:31;9.13;;;3.78;;
64186;SDS011;50491;39.484;-8.540;2022-07-24T05:00:32;6.03;;;4.82;;
64186;SDS011;50491;39.484;-8.540;2022-07-24T05:02:33;4.65;;;3.83;;
64186;SDS011;50491;39.484;-8.540;2022-07-24T05:04:52;14.38;;;4.85;;
64186;SDS011;50491;39.484;-8.540;2022-07-24T05:06:53;7.85;;;5.00;;
64186;SDS011;50491;39.484;-8.540;2022-07-24T05:08:53;8.13;;;4.50;;
64186;SDS011;50491;39.484;-8.540;2022-07-24T05:10:54;4.78;;;3.47;;
64186;SDS011;50491;39.484;-8.540;2022-07-24T05:12:55;5.18;;;3.83;;
64186;SDS011;50491;39.484;-8.540;2022-07-24T05:15:20;8.07;;;4.30;;
64186;SDS011;50491;39.484;-8.540;2022-07-24T05:17:21;5.95;;;3.47;;
64186;SDS011;50491;39.484;-8.540;2022-07-24T05:19:47;5.72;;;3.47;;
64186;SDS011;50491;39.484;-8.540;2022-07-24T05:21:48;3.50;;;2.97;;
64186;SDS011;50491;39.484;-8.540;2022-07-24T05:24:07;5.97;;;3.58;;
64186;SDS011;50491;39.484;-8.540;2022-07-24T05:26:08;6.13;;;3.80;;
64186;SDS011;50491;39.484;-8.540;2022-07-24T05:28:09;8.38;;;3.78;;
64186;SDS011;50491;39.484;-8.540;2022-07-24T05:30:28;7.93;;;3.55;;
64186;SDS011;50491;39.484;-8.540;2022-07-24T05:32:29;7.07;;;4.80;;
64186;SDS011;50491;39.484;-8.540;2022-07-24T05:34:29;4.95;;;3.58;;
64186;SDS011;50491;39.484;-8.540;2022-07-24T05:36:30;7.20;;;3.88;;
64186;SDS011;50491;39.484;-8.540;2022-07-24T05:38:49;4.97;;;2.88;;
64186;SDS011;50491;39.484;-8.540;2022-07-24T05:41:09;6.78;;;3.67;;
64186;SDS011;50491;39.484;-8.540;2022-07-24T05:43:11;6.43;;;4.10;;
64186;SDS011;50491;39.484;-8.540;2022-07-24T05:46:02;7.80;;;4.25;;
64186;SDS011;50491;39.484;-8.540;2022-07-24T05:48:29;4.28;;;3.53;;
64186;SDS011;50491;39.484;-8.540;2022-07-24T05:50:30;9.75;;;3.80;;
64186;SDS011;50491;39.484;-8.540;2022-07-24T05:52:30;10.13;;;3.53;;
64186;SDS011;50491;39.484;-8.540;2022-07-24T05:57:09;4.78;;;3.42;;
64186;SDS011;50491;39.484;-8.540;2022-07-24T05:59:28;8.07;;;3.40;;
64186;SDS011;50491;39.484;-8.540;2022-07-24T06:01:29;5.57;;;3.15;;
64186;SDS011;50491;39.484;-8.540;2022-07-24T06:03:29;6.47;;;3.47;;
64186;SDS011;50491;39.484;-8.540;2022-07-24T06:05:54;3.50;;;3.20;;
64186;SDS011;50491;39.484;-8.540;2022-07-24T06:08:13;5.47;;;3.33;;
64186;SDS011;50491;39.484;-8.540;2022-07-24T06:10:14;4.18;;;2.92;;
64186;SDS011;50491;39.484;-8.540;2022-07-24T06:12:15;5.68;;;3.22;;
64186;SDS011;50491;39.484;-8.540;2022-07-24T06:16:35;3.15;;;2.88;;
64186;SDS011;50491;39.484;-8.540;2022-07-24T06:18:54;9.30;;;3.15;;
64186;SDS011;50491;39.484;-8.540;2022-07-24T06:20:55;5.65;;;2.65;;
64186;SDS011;50491;39.484;-8.540;2022-07-24T06:23:14;4.22;;;3.00;;
64186;SDS011;50491;39.484;-8.540;2022-07-24T06:25:15;4.38;;;2.97;;
64186;SDS011;50491;39.484;-8.540;2022-07-24T06:32:55;9.82;;;3.75;;
64186;SDS011;50491;39.484;-8.540;2022-07-24T06:35:33;5.47;;;3.40;;
64186;SDS011;50491;39.484;-8.540;2022-07-24T06:42:12;5.78;;;3.22;;
64186;SDS011;50491;39.484;-8.540;2022-07-24T06:46:53;5.63;;;3.70;;
64186;SDS011;50491;39.484;-8.540;2022-07-24T06:48:53;9.07;;;3.90;;
64186;SDS011;50491;39.484;-8.540;2022-07-24T06:50:54;5.95;;;2.88;;
64186;SDS011;50491;39.484;-8.540;2022-07-24T06:53:13;9.10;;;4.03;;
64186;SDS011;50491;39.484;-8.540;2022-07-24T06:55:14;4.40;;;2.72;;
64186;SDS011;50491;39.484;-8.540;2022-07-24T06:59:34;8.88;;;4.30;;
64186;SDS011;50491;39.484;-8.540;2022-07-24T07:06:12;8.88;;;4.18;;
64186;SDS011;50491;39.484;-8.540;2022-07-24T07:08:13;7.97;;;4.97;;
64186;SDS011;50491;39.484;-8.540;2022-07-24T07:10:14;10.48;;;5.10;;
64186;SDS011;50491;39.484;-8.540;2022-07-24T07:14:52;6.82;;;3.53;;
64186;SDS011;50491;39.484;-8.540;2022-07-24T07:16:53;7.85;;;4.20;;
64186;SDS011;50491;39.484;-8.540;2022-07-24T07:18:53;9.43;;;4.55;;
64186;SDS011;50491;39.484;-8.540;2022-07-24T07:23:50;6.88;;;4.70;;
64186;SDS011;50491;39.484;-8.540;2022-07-24T07:28:11;5.43;;;3.85;;
64186;SDS011;50491;39.484;-8.540;2022-07-24T07:30:12;4.50;;;3.30;;
64186;SDS011;50491;39.484;-8.540;2022-07-24T07:32:13;7.43;;;4.63;;
64186;SDS011;50491;39.484;-8.540;2022-07-24T07:34:32;6.35;;;3.92;;
64186;SDS011;50491;39.484;-8.540;2022-07-24T07:41:11;4.15;;;3.75;;
64186;SDS011;50491;39.484;-8.540;2022-07-24T07:43:31;5.57;;;2.33;;
64186;SDS011;50491;39.484;-8.540;2022-07-24T07:50:49;7.25;;;2.78;;
64186;SDS011;50491;39.484;-8.540;2022-07-24T07:52:49;2.97;;;2.67;;
64186;SDS011;50491;39.484;-8.540;2022-07-24T08:00:19;6.22;;;3.30;;
64186;SDS011;50491;39.484;-8.540;2022-07-24T08:07:54;15.15;;;3.97;;
64186;SDS011;50491;39.484;-8.540;2022-07-24T08:10:14;7.88;;;4.00;;
64186;SDS011;50491;39.484;-8.540;2022-07-24T08:12:34;7.15;;;4.00;;
64186;SDS011;50491;39.484;-8.540;2022-07-24T08:14:53;6.32;;;3.90;;
64186;SDS011;50491;39.484;-8.540;2022-07-24T08:17:31;9.45;;;3.53;;
64186;SDS011;50491;39.484;-8.540;2022-07-24T08:19:50;5.47;;;3.80;;
64186;SDS011;50491;39.484;-8.540;2022-07-24T08:22:10;5.65;;;4.13;;
64186;SDS011;50491;39.484;-8.540;2022-07-24T08:24:28;7.10;;;4.50;;
64186;SDS011;50491;39.484;-8.540;2022-07-24T08:26:30;8.05;;;5.03;;
64186;SDS011;50491;39.484;-8.540;2022-07-24T08:28:31;6.30;;;4.57;;
64186;SDS011;50491;39.484;-8.540;2022-07-24T08:30:50;6.70;;;4.20;;
64186;SDS011;50491;39.484;-8.540;2022-07-24T08:33:09;6.25;;;3.25;;
64186;SDS011;50491;39.484;-8.540;2022-07-24T08:35:28;6.70;;;4.00;;
64186;SDS011;50491;39.484;-8.540;2022-07-24T08:37:29;4.80;;;3.72;;
64186;SDS011;50491;39.484;-8.540;2022-07-24T08:39:30;4.22;;;3.03;;
64186;SDS011;50491;39.484;-8.540;2022-07-24T08:41:49;6.75;;;3.60;;
64186;SDS011;50491;39.484;-8.540;2022-07-24T08:43:50;7.00;;;3.58;;
64186;SDS011;50491;39.484;-8.540;2022-07-24T08:46:02;4.43;;;3.38;;
64186;SDS011;50491;39.484;-8.540;2022-07-24T08:48:04;6.43;;;3.72;;
64186;SDS011;50491;39.484;-8.540;2022-07-24T08:50:05;5.50;;;3.25;;
64186;SDS011;50491;39.484;-8.540;2022-07-24T08:54:25;6.95;;;3.50;;
64186;SDS011;50491;39.484;-8.540;2022-07-24T09:01:24;5.68;;;3.20;;
64186;SDS011;50491;39.484;-8.540;2022-07-24T09:03:24;4.75;;;3.00;;
64186;SDS011;50491;39.484;-8.540;2022-07-24T09:05:25;5.97;;;2.35;;
64186;SDS011;50491;39.484;-8.540;2022-07-24T09:07:27;7.38;;;3.08;;
64186;SDS011;50491;39.484;-8.540;2022-07-24T09:09:28;3.05;;;1.90;;
64186;SDS011;50491;39.484;-8.540;2022-07-24T09:11:28;2.40;;;1.85;;
64186;SDS011;50491;39.484;-8.540;2022-07-24T09:13:30;5.50;;;2.17;;
64186;SDS011;50491;39.484;-8.540;2022-07-24T09:23:41;5.25;;;1.58;;
64186;SDS011;50491;39.484;-8.540;2022-07-24T09:30:37;5.50;;;1.67;;
64186;SDS011;50491;39.484;-8.540;2022-07-24T09:36:16;4.15;;;1.55;;
64186;SDS011;50491;39.484;-8.540;2022-07-24T09:38:18;3.53;;;1.35;;
64186;SDS011;50491;39.484;-8.540;2022-07-24T09:40:21;5.38;;;1.42;;
64186;SDS011;50491;39.484;-8.540;2022-07-24T09:42:29;3.97;;;1.63;;
64186;SDS011;50491;39.484;-8.540;2022-07-24T09:44:30;4.13;;;1.35;;
64186;SDS011;50491;39.484;-8.540;2022-07-24T09:47:20;11.38;;;1.75;;
64186;SDS011;50491;39.484;-8.540;2022-07-24T09:49:21;2.85;;;1.60;;
64186;SDS011;50491;39.484;-8.540;2022-07-24T09:51:23;3.03;;;1.02;;
64186;SDS011;50491;39.484;-8.540;2022-07-24T09:53:26;3.67;;;1.35;;
64186;SDS011;50491;39.484;-8.540;2022-07-24T09:55:28;2.17;;;1.25;;
64186;SDS011;50491;39.484;-8.540;2022-07-24T09:57:48;6.85;;;1.60;;
64186;SDS011;50491;39.484;-8.540;2022-07-24T09:59:50;2.53;;;1.20;;
64186;SDS011;50491;39.484;-8.540;2022-07-24T10:01:52;1.85;;;1.20;;
64186;SDS011;50491;39.484;-8.540;2022-07-24T10:03:53;3.83;;;1.50;;
64186;SDS011;50491;39.484;-8.540;2022-07-24T10:05:59;4.38;;;1.63;;
64186;SDS011;50491;39.484;-8.540;2022-07-24T10:08:04;3.90;;;1.98;;
64186;SDS011;50491;39.484;-8.540;2022-07-24T10:10:06;2.42;;;1.17;;
64186;SDS011;50491;39.484;-8.540;2022-07-24T10:15:19;3.80;;;1.35;;
64186;SDS011;50491;39.484;-8.540;2022-07-24T10:23:01;3.92;;;1.17;;
64186;SDS011;50491;39.484;-8.540;2022-07-24T10:28:35;3.30;;;1.42;;
64186;SDS011;50491;39.484;-8.540;2022-07-24T10:30:37;3.70;;;1.13;;
64186;SDS011;50491;39.484;-8.540;2022-07-24T10:38:36;4.07;;;1.20;;
64186;SDS011;50491;39.484;-8.540;2022-07-24T10:55:38;3.35;;;1.05;;
64186;SDS011;50491;39.484;-8.540;2022-07-24T11:02:27;3.35;;;1.20;;
64186;SDS011;50491;39.484;-8.540;2022-07-24T11:09:26;7.45;;;1.08;;
64186;SDS011;50491;39.484;-8.540;2022-07-24T11:11:28;2.92;;;1.00;;
64186;SDS011;50491;39.484;-8.540;2022-07-24T11:18:13;3.47;;;1.05;;
64186;SDS011;50491;39.484;-8.540;2022-07-24T11:20:15;2.40;;;1.05;;
64186;SDS011;50491;39.484;-8.540;2022-07-24T11:22:16;2.80;;;1.23;;
64186;SDS011;50491;39.484;-8.540;2022-07-24T11:24:17;4.82;;;1.10;;
64186;SDS011;50491;39.484;-8.540;2022-07-24T11:31:16;2.40;;;1.38;;
64186;SDS011;50491;39.484;-8.540;2022-07-24T11:33:20;1.85;;;1.20;;
64186;SDS011;50491;39.484;-8.540;2022-07-24T11:35:34;6.72;;;2.50;;
64186;SDS011;50491;39.484;-8.540;2022-07-24T11:37:37;2.17;;;1.13;;
64186;SDS011;50491;39.484;-8.540;2022-07-24T11:39:39;2.97;;;0.82;;
64186;SDS011;50491;39.484;-8.540;2022-07-24T11:41:44;7.95;;;1.40;;
64186;SDS011;50491;39.484;-8.540;2022-07-24T11:44:14;4.82;;;1.10;;
64186;SDS011;50491;39.484;-8.540;2022-07-24T11:46:34;3.63;;;1.15;;
64186;SDS011;50491;39.484;-8.540;2022-07-24T11:48:39;3.80;;;1.20;;
64186;SDS011;50491;39.484;-8.540;2022-07-24T11:50:40;3.15;;;1.50;;
64186;SDS011;50491;39.484;-8.540;2022-07-24T11:52:41;5.70;;;1.33;;
64186;SDS011;50491;39.484;-8.540;2022-07-24T11:54:41;3.78;;;1.30;;
64186;SDS011;50491;39.484;-8.540;2022-07-24T11:56:42;3.17;;;1.17;;
64186;SDS011;50491;39.484;-8.540;2022-07-24T11:59:21;5.32;;;1.70;;
64186;SDS011;50491;39.484;-8.540;2022-07-24T12:01:25;1.90;;;1.30;;
64186;SDS011;50491;39.484;-8.540;2022-07-24T12:03:48;4.03;;;1.80;;
64186;SDS011;50491;39.484;-8.540;2022-07-24T12:05:52;1.90;;;1.70;;
64186;SDS011;50491;39.484;-8.540;2022-07-24T12:07:53;2.95;;;1.65;;
64186;SDS011;50491;39.484;-8.540;2022-07-24T12:14:29;4.05;;;1.40;;
64186;SDS011;50491;39.484;-8.540;2022-07-24T12:16:30;3.97;;;1.85;;
64186;SDS011;50491;39.484;-8.540;2022-07-24T12:18:31;5.57;;;1.63;;
64186;SDS011;50491;39.484;-8.540;2022-07-24T12:20:33;4.90;;;1.98;;
64186;SDS011;50491;39.484;-8.540;2022-07-24T12:22:56;3.25;;;1.90;;
64186;SDS011;50491;39.484;-8.540;2022-07-24T12:24:57;4.30;;;1.80;;
64186;SDS011;50491;39.484;-8.540;2022-07-24T12:26:59;2.13;;;1.75;;
64186;SDS011;50491;39.484;-8.540;2022-07-24T12:29:08;4.22;;;1.50;;
64186;SDS011;50491;39.484;-8.540;2022-07-24T12:31:10;3.50;;;1.83;;
64186;SDS011;50491;39.484;-8.540;2022-07-24T12:36:45;3.13;;;1.73;;
64186;SDS011;50491;39.484;-8.540;2022-07-24T12:38:55;7.13;;;2.17;;
64186;SDS011;50491;39.484;-8.540;2022-07-24T12:41:16;8.57;;;1.88;;
64186;SDS011;50491;39.484;-8.540;2022-07-24T12:43:17;2.13;;;1.52;;
64186;SDS011;50491;39.484;-8.540;2022-07-24T12:45:18;2.63;;;1.63;;
64186;SDS011;50491;39.484;-8.540;2022-07-24T12:50:28;4.25;;;1.85;;
64186;SDS011;50491;39.484;-8.540;2022-07-24T12:53:01;4.57;;;1.67;;
64186;SDS011;50491;39.484;-8.540;2022-07-24T12:55:03;3.47;;;1.60;;
64186;SDS011;50491;39.484;-8.540;2022-07-24T12:57:08;4.72;;;2.10;;
64186;SDS011;50491;39.484;-8.540;2022-07-24T13:02:16;3.00;;;1.27;;
64186;SDS011;50491;39.484;-8.540;2022-07-24T13:04:44;5.72;;;2.08;;
64186;SDS011;50491;39.484;-8.540;2022-07-24T13:07:06;4.15;;;1.33;;
64186;SDS011;50491;39.484;-8.540;2022-07-24T13:09:09;5.13;;;2.00;;
64186;SDS011;50491;39.484;-8.540;2022-07-24T13:11:29;2.17;;;1.48;;
64186;SDS011;50491;39.484;-8.540;2022-07-24T13:13:30;3.03;;;1.75;;
64186;SDS011;50491;39.484;-8.540;2022-07-24T13:15:49;3.90;;;1.05;;
64186;SDS011;50491;39.484;-8.540;2022-07-24T13:18:08;4.38;;;1.70;;
64186;SDS011;50491;39.484;-8.540;2022-07-24T13:20:27;3.67;;;1.05;;
64186;SDS011;50491;39.484;-8.540;2022-07-24T13:22:28;2.67;;;1.08;;
64186;SDS011;50491;39.484;-8.540;2022-07-24T13:24:47;4.78;;;1.55;;
64186;SDS011;50491;39.484;-8.540;2022-07-24T13:26:48;3.22;;;1.38;;
64186;SDS011;50491;39.484;-8.540;2022-07-24T13:29:07;1.38;;;0.88;;
64186;SDS011;50491;39.484;-8.540;2022-07-24T13:31:08;2.70;;;0.93;;
64186;SDS011;50491;39.484;-8.540;2022-07-24T13:33:27;2.50;;;0.98;;
64186;SDS011;50491;39.484;-8.540;2022-07-24T13:35:28;3.00;;;1.20;;
64186;SDS011;50491;39.484;-8.540;2022-07-24T13:37:29;1.50;;;0.80;;
64186;SDS011;50491;39.484;-8.540;2022-07-24T13:39:29;1.20;;;0.88;;
64186;SDS011;50491;39.484;-8.540;2022-07-24T13:41:30;3.75;;;0.98;;
64186;SDS011;50491;39.484;-8.540;2022-07-24T13:43:32;3.35;;;0.95;;
64186;SDS011;50491;39.484;-8.540;2022-07-24T13:45:52;2.42;;;0.70;;
64186;SDS011;50491;39.484;-8.540;2022-07-24T13:47:53;4.05;;;0.90;;
64186;SDS011;50491;39.484;-8.540;2022-07-24T13:50:37;1.30;;;0.60;;
64186;SDS011;50491;39.484;-8.540;2022-07-24T13:52:38;4.55;;;1.27;;
64186;SDS011;50491;39.484;-8.540;2022-07-24T13:54:57;3.75;;;0.60;;
64186;SDS011;50491;39.484;-8.540;2022-07-24T13:56:58;1.98;;;1.15;;
64186;SDS011;50491;39.484;-8.540;2022-07-24T13:58:58;1.65;;;0.52;;
64186;SDS011;50491;39.484;-8.540;2022-07-24T14:00:59;1.17;;;0.57;;
64186;SDS011;50491;39.484;-8.540;2022-07-24T14:03:00;0.88;;;0.70;;
64186;SDS011;50491;39.484;-8.540;2022-07-24T14:05:00;3.28;;;0.95;;
64186;SDS011;50491;39.484;-8.540;2022-07-24T14:07:01;6.30;;;0.75;;
64186;SDS011;50491;39.484;-8.540;2022-07-24T14:09:21;3.40;;;0.75;;
64186;SDS011;50491;39.484;-8.540;2022-07-24T14:11:40;4.35;;;1.17;;
64186;SDS011;50491;39.484;-8.540;2022-07-24T14:16:25;2.08;;;0.50;;
64186;SDS011;50491;39.484;-8.540;2022-07-24T14:18:45;4.68;;;0.73;;
64186;SDS011;50491;39.484;-8.540;2022-07-24T14:21:04;1.42;;;0.50;;
64186;SDS011;50491;39.484;-8.540;2022-07-24T14:23:23;1.75;;;0.50;;
64186;SDS011;50491;39.484;-8.540;2022-07-24T14:25:43;3.17;;;0.77;;
64186;SDS011;50491;39.484;-8.540;2022-07-24T14:27:44;2.35;;;0.85;;
64186;SDS011;50491;39.484;-8.540;2022-07-24T14:29:46;1.65;;;0.73;;
64186;SDS011;50491;39.484;-8.540;2022-07-24T14:31:46;0.82;;;0.75;;
64186;SDS011;50491;39.484;-8.540;2022-07-24T14:33:47;3.25;;;1.10;;
64186;SDS011;50491;39.484;-8.540;2022-07-24T14:36:06;3.03;;;0.85;;
64186;SDS011;50491;39.484;-8.540;2022-07-24T14:38:07;1.75;;;0.73;;
64186;SDS011;50491;39.484;-8.540;2022-07-24T14:40:08;2.22;;;0.80;;
64186;SDS011;50491;39.484;-8.540;2022-07-24T14:42:09;1.38;;;0.60;;
64186;SDS011;50491;39.484;-8.540;2022-07-24T14:44:28;0.63;;;0.40;;
64186;SDS011;50491;39.484;-8.540;2022-07-24T14:46:48;0.75;;;0.60;;
64186;SDS011;50491;39.484;-8.540;2022-07-24T14:49:08;2.15;;;0.70;;
64186;SDS011;50491;39.484;-8.540;2022-07-24T14:51:08;2.83;;;0.70;;
64186;SDS011;50491;39.484;-8.540;2022-07-24T14:53:10;1.90;;;0.60;;
64186;SDS011;50491;39.484;-8.540;2022-07-24T14:55:29;0.80;;;0.60;;
64186;SDS011;50491;39.484;-8.540;2022-07-24T14:57:48;1.67;;;0.70;;
64186;SDS011;50491;39.484;-8.540;2022-07-24T14:59:48;1.13;;;0.60;;
64186;SDS011;50491;39.484;-8.540;2022-07-24T15:02:08;3.17;;;0.75;;
64186;SDS011;50491;39.484;-8.540;2022-07-24T15:04:27;0.95;;;0.65;;
64186;SDS011;50491;39.484;-8.540;2022-07-24T15:06:46;1.05;;;0.45;;
64186;SDS011;50491;39.484;-8.540;2022-07-24T15:08:47;1.48;;;0.50;;
64186;SDS011;50491;39.484;-8.540;2022-07-24T15:11:07;1.63;;;0.50;;
64186;SDS011;50491;39.484;-8.540;2022-07-24T15:13:26;1.42;;;0.50;;
64186;SDS011;50491;39.484;-8.540;2022-07-24T15:15:27;1.23;;;0.60;;
64186;SDS011;50491;39.484;-8.540;2022-07-24T15:17:27;1.92;;;0.50;;
64186;SDS011;50491;39.484;-8.540;2022-07-24T15:19:28;3.63;;;0.50;;
64186;SDS011;50491;39.484;-8.540;2022-07-24T15:21:47;2.15;;;0.70;;
64186;SDS011;50491;39.484;-8.540;2022-07-24T15:23:48;0.82;;;0.25;;
64186;SDS011;50491;39.484;-8.540;2022-07-24T15:25:49;2.97;;;0.30;;
64186;SDS011;50491;39.484;-8.540;2022-07-24T15:28:08;1.73;;;0.70;;
64186;SDS011;50491;39.484;-8.540;2022-07-24T15:30:09;5.35;;;0.60;;
64186;SDS011;50491;39.484;-8.540;2022-07-24T15:32:10;0.88;;;0.68;;
64186;SDS011;50491;39.484;-8.540;2022-07-24T15:34:10;3.05;;;0.70;;
64186;SDS011;50491;39.484;-8.540;2022-07-24T15:36:27;1.05;;;0.70;;